sensor_id;sensor_type;location;lat;lon;timestamp;temperature;humidity
32534;DHT22;18973;48.580;8.912;2023-06-14T00:01:33;16.60;66.60
32534;DHT22;18973;48.580;8.912;2023-06-14T00:04:00;16.40;66.80
32534;DHT22;18973;48.580;8.912;2023-06-14T00:06:30;16.20;67.30
32534;DHT22;18973;48.580;8.912;2023-06-14T00:08:56;16.40;67.30
32534;DHT22;18973;48.580;8.912;2023-06-14T00:11:21;16.20;68.00
32534;DHT22;18973;48.580;8.912;2023-06-14T00:13:47;16.00;69.00
32534;DHT22;18973;48.580;8.912;2023-06-14T00:16:13;15.90;69.00
32534;DHT22;18973;48.580;8.912;2023-06-14T00:18:38;16.10;68.50
32534;DHT22;18973;48.580;8.912;2023-06-14T00:21:05;16.10;68.40
32534;DHT22;18973;48.580;8.912;2023-06-14T00:23:31;16.20;67.70
32534;DHT22;18973;48.580;8.912;2023-06-14T00:25:56;16.20;67.60
32534;DHT22;18973;48.580;8.912;2023-06-14T00:28:22;16.10;68.50
32534;DHT22;18973;48.580;8.912;2023-06-14T00:30:48;15.70;69.40
32534;DHT22;18973;48.580;8.912;2023-06-14T00:33:13;15.50;70.50
32534;DHT22;18973;48.580;8.912;2023-06-14T00:35:39;15.60;70.20
32534;DHT22;18973;48.580;8.912;2023-06-14T00:38:05;15.50;70.90
32534;DHT22;18973;48.580;8.912;2023-06-14T00:40:31;15.60;70.70
32534;DHT22;18973;48.580;8.912;2023-06-14T00:42:56;15.60;71.30
32534;DHT22;18973;48.580;8.912;2023-06-14T00:45:22;15.60;71.30
32534;DHT22;18973;48.580;8.912;2023-06-14T00:47:49;15.50;71.70
32534;DHT22;18973;48.580;8.912;2023-06-14T00:50:18;15.50;71.70
32534;DHT22;18973;48.580;8.912;2023-06-14T00:52:45;15.40;72.10
32534;DHT22;18973;48.580;8.912;2023-06-14T00:55:11;15.20;71.80
32534;DHT22;18973;48.580;8.912;2023-06-14T00:57:37;15.30;72.00
32534;DHT22;18973;48.580;8.912;2023-06-14T01:00:03;15.40;72.30
32534;DHT22;18973;48.580;8.912;2023-06-14T01:02:35;15.30;72.80
32534;DHT22;18973;48.580;8.912;2023-06-14T01:05:02;15.30;73.50
32534;DHT22;18973;48.580;8.912;2023-06-14T01:15:45;14.90;75.60
32534;DHT22;18973;48.580;8.912;2023-06-14T01:18:12;14.70;75.70
32534;DHT22;18973;48.580;8.912;2023-06-14T01:20:43;14.90;75.60
32534;DHT22;18973;48.580;8.912;2023-06-14T01:23:19;14.80;76.20
32534;DHT22;18973;48.580;8.912;2023-06-14T01:25:45;14.80;76.20
32534;DHT22;18973;48.580;8.912;2023-06-14T01:28:13;14.80;76.50
32534;DHT22;18973;48.580;8.912;2023-06-14T01:30:44;14.90;75.90
32534;DHT22;18973;48.580;8.912;2023-06-14T01:33:18;14.80;76.10
32534;DHT22;18973;48.580;8.912;2023-06-14T01:35:47;14.70;76.10
32534;DHT22;18973;48.580;8.912;2023-06-14T01:38:14;14.60;77.10
32534;DHT22;18973;48.580;8.912;2023-06-14T01:40:42;14.40;77.40
32534;DHT22;18973;48.580;8.912;2023-06-14T01:43:11;14.30;77.20
32534;DHT22;18973;48.580;8.912;2023-06-14T01:45:43;14.20;77.50
32534;DHT22;18973;48.580;8.912;2023-06-14T01:48:09;14.30;77.20
32534;DHT22;18973;48.580;8.912;2023-06-14T01:50:35;14.30;77.40
32534;DHT22;18973;48.580;8.912;2023-06-14T01:53:01;14.10;77.30
32534;DHT22;18973;48.580;8.912;2023-06-14T01:55:27;14.00;77.20
32534;DHT22;18973;48.580;8.912;2023-06-14T01:57:53;14.10;77.00
32534;DHT22;18973;48.580;8.912;2023-06-14T02:00:20;14.30;76.70
32534;DHT22;18973;48.580;8.912;2023-06-14T02:02:47;14.40;77.90
32534;DHT22;18973;48.580;8.912;2023-06-14T02:05:12;14.50;76.90
32534;DHT22;18973;48.580;8.912;2023-06-14T02:07:38;14.50;77.50
32534;DHT22;18973;48.580;8.912;2023-06-14T02:10:05;14.50;77.40
32534;DHT22;18973;48.580;8.912;2023-06-14T02:12:30;14.40;78.00
32534;DHT22;18973;48.580;8.912;2023-06-14T02:14:56;14.50;78.00
32534;DHT22;18973;48.580;8.912;2023-06-14T02:17:22;14.50;78.10
32534;DHT22;18973;48.580;8.912;2023-06-14T02:19:51;14.40;78.80
32534;DHT22;18973;48.580;8.912;2023-06-14T02:22:16;14.00;80.70
32534;DHT22;18973;48.580;8.912;2023-06-14T02:24:42;13.90;81.40
32534;DHT22;18973;48.580;8.912;2023-06-14T02:27:08;13.70;81.50
32534;DHT22;18973;48.580;8.912;2023-06-14T02:29:36;13.60;81.60
32534;DHT22;18973;48.580;8.912;2023-06-14T02:32:03;13.70;81.80
32534;DHT22;18973;48.580;8.912;2023-06-14T02:34:29;13.70;82.40
32534;DHT22;18973;48.580;8.912;2023-06-14T02:36:55;13.70;82.20
32534;DHT22;18973;48.580;8.912;2023-06-14T02:39:21;13.60;83.00
32534;DHT22;18973;48.580;8.912;2023-06-14T02:41:49;13.80;82.10
32534;DHT22;18973;48.580;8.912;2023-06-14T02:44:17;13.80;81.60
32534;DHT22;18973;48.580;8.912;2023-06-14T02:46:43;13.40;83.00
32534;DHT22;18973;48.580;8.912;2023-06-14T02:49:10;13.20;84.30
32534;DHT22;18973;48.580;8.912;2023-06-14T02:51:36;13.00;85.50
32534;DHT22;18973;48.580;8.912;2023-06-14T02:54:02;13.10;84.50
32534;DHT22;18973;48.580;8.912;2023-06-14T02:56:28;13.20;84.40
32534;DHT22;18973;48.580;8.912;2023-06-14T02:58:54;13.10;84.60
32534;DHT22;18973;48.580;8.912;2023-06-14T03:01:19;13.30;84.40
32534;DHT22;18973;48.580;8.912;2023-06-14T03:03:47;13.00;85.40
32534;DHT22;18973;48.580;8.912;2023-06-14T03:06:12;13.00;85.80
32534;DHT22;18973;48.580;8.912;2023-06-14T03:08:40;13.00;86.00
32534;DHT22;18973;48.580;8.912;2023-06-14T03:11:06;13.20;86.20
32534;DHT22;18973;48.580;8.912;2023-06-14T03:13:31;13.30;84.70
32534;DHT22;18973;48.580;8.912;2023-06-14T03:15:57;13.40;84.50
32534;DHT22;18973;48.580;8.912;2023-06-14T03:18:23;13.20;85.40
32534;DHT22;18973;48.580;8.912;2023-06-14T03:20:49;13.00;85.80
32534;DHT22;18973;48.580;8.912;2023-06-14T03:23:16;12.90;86.40
32534;DHT22;18973;48.580;8.912;2023-06-14T03:25:42;12.80;86.80
32534;DHT22;18973;48.580;8.912;2023-06-14T03:28:08;12.90;87.60
32534;DHT22;18973;48.580;8.912;2023-06-14T03:30:33;12.90;87.90
32534;DHT22;18973;48.580;8.912;2023-06-14T03:32:59;12.90;87.70
32534;DHT22;18973;48.580;8.912;2023-06-14T03:35:28;13.00;87.80
32534;DHT22;18973;48.580;8.912;2023-06-14T03:37:54;13.10;88.60
32534;DHT22;18973;48.580;8.912;2023-06-14T03:40:21;13.10;88.10
32534;DHT22;18973;48.580;8.912;2023-06-14T03:42:47;13.30;87.10
32534;DHT22;18973;48.580;8.912;2023-06-14T03:45:12;13.20;87.50
32534;DHT22;18973;48.580;8.912;2023-06-14T03:47:38;13.10;88.10
32534;DHT22;18973;48.580;8.912;2023-06-14T03:50:04;12.90;88.20
32534;DHT22;18973;48.580;8.912;2023-06-14T03:52:31;12.80;88.80
32534;DHT22;18973;48.580;8.912;2023-06-14T03:54:58;13.00;87.80
32534;DHT22;18973;48.580;8.912;2023-06-14T03:57:25;12.80;88.30
32534;DHT22;18973;48.580;8.912;2023-06-14T03:59:51;13.00;87.30
32534;DHT22;18973;48.580;8.912;2023-06-14T04:02:18;13.00;87.20
32534;DHT22;18973;48.580;8.912;2023-06-14T04:04:44;13.10;87.50
32534;DHT22;18973;48.580;8.912;2023-06-14T04:07:13;12.80;88.80
32534;DHT22;18973;48.580;8.912;2023-06-14T04:09:40;12.80;89.40
32534;DHT22;18973;48.580;8.912;2023-06-14T04:12:06;12.90;89.70
32534;DHT22;18973;48.580;8.912;2023-06-14T04:14:34;13.00;90.00
32534;DHT22;18973;48.580;8.912;2023-06-14T04:17:00;13.10;90.20
32534;DHT22;18973;48.580;8.912;2023-06-14T04:19:26;12.80;90.20
32534;DHT22;18973;48.580;8.912;2023-06-14T04:21:52;12.90;90.20
32534;DHT22;18973;48.580;8.912;2023-06-14T04:24:17;13.10;89.60
32534;DHT22;18973;48.580;8.912;2023-06-14T04:26:44;13.10;88.60
32534;DHT22;18973;48.580;8.912;2023-06-14T04:29:17;13.10;89.60
32534;DHT22;18973;48.580;8.912;2023-06-14T04:31:45;13.20;89.50
32534;DHT22;18973;48.580;8.912;2023-06-14T04:34:12;13.20;88.70
32534;DHT22;18973;48.580;8.912;2023-06-14T04:36:44;13.20;89.00
32534;DHT22;18973;48.580;8.912;2023-06-14T04:39:22;13.20;89.30
32534;DHT22;18973;48.580;8.912;2023-06-14T04:41:48;13.10;90.20
32534;DHT22;18973;48.580;8.912;2023-06-14T04:44:17;12.80;91.00
32534;DHT22;18973;48.580;8.912;2023-06-14T04:46:43;12.80;91.70
32534;DHT22;18973;48.580;8.912;2023-06-14T04:49:18;12.90;91.20
32534;DHT22;18973;48.580;8.912;2023-06-14T04:51:44;13.10;90.90
32534;DHT22;18973;48.580;8.912;2023-06-14T04:54:11;13.30;90.60
32534;DHT22;18973;48.580;8.912;2023-06-14T04:56:41;13.40;90.30
32534;DHT22;18973;48.580;8.912;2023-06-14T04:59:07;13.50;89.40
32534;DHT22;18973;48.580;8.912;2023-06-14T05:01:34;13.30;90.20
32534;DHT22;18973;48.580;8.912;2023-06-14T05:04:00;13.30;90.30
32534;DHT22;18973;48.580;8.912;2023-06-14T05:06:26;13.40;90.60
32534;DHT22;18973;48.580;8.912;2023-06-14T05:08:53;13.40;90.90
32534;DHT22;18973;48.580;8.912;2023-06-14T05:11:19;13.60;91.10
32534;DHT22;18973;48.580;8.912;2023-06-14T05:13:45;13.50;90.60
32534;DHT22;18973;48.580;8.912;2023-06-14T05:16:11;13.40;91.10
32534;DHT22;18973;48.580;8.912;2023-06-14T05:18:37;13.60;91.00
32534;DHT22;18973;48.580;8.912;2023-06-14T05:21:03;13.60;91.10
32534;DHT22;18973;48.580;8.912;2023-06-14T05:23:31;13.80;91.10
32534;DHT22;18973;48.580;8.912;2023-06-14T05:25:56;14.00;90.60
32534;DHT22;18973;48.580;8.912;2023-06-14T05:28:23;14.00;90.90
32534;DHT22;18973;48.580;8.912;2023-06-14T05:30:49;14.00;91.20
32534;DHT22;18973;48.580;8.912;2023-06-14T05:33:14;14.10;91.20
32534;DHT22;18973;48.580;8.912;2023-06-14T05:35:40;14.00;91.50
32534;DHT22;18973;48.580;8.912;2023-06-14T05:38:06;14.20;91.20
32534;DHT22;18973;48.580;8.912;2023-06-14T05:40:33;14.30;91.00
32534;DHT22;18973;48.580;8.912;2023-06-14T05:42:58;14.50;91.00
32534;DHT22;18973;48.580;8.912;2023-06-14T05:45:24;14.50;91.00
32534;DHT22;18973;48.580;8.912;2023-06-14T05:47:50;14.70;91.10
32534;DHT22;18973;48.580;8.912;2023-06-14T05:50:16;14.70;91.30
32534;DHT22;18973;48.580;8.912;2023-06-14T05:52:42;14.60;91.90
32534;DHT22;18973;48.580;8.912;2023-06-14T05:55:08;14.70;92.00
32534;DHT22;18973;48.580;8.912;2023-06-14T05:57:34;15.00;91.80
32534;DHT22;18973;48.580;8.912;2023-06-14T06:00:01;15.20;91.70
32534;DHT22;18973;48.580;8.912;2023-06-14T06:02:28;15.40;91.20
32534;DHT22;18973;48.580;8.912;2023-06-14T06:04:53;15.50;91.20
32534;DHT22;18973;48.580;8.912;2023-06-14T06:07:19;15.60;90.70
32534;DHT22;18973;48.580;8.912;2023-06-14T06:09:45;15.70;90.50
32534;DHT22;18973;48.580;8.912;2023-06-14T06:12:10;15.70;91.00
32534;DHT22;18973;48.580;8.912;2023-06-14T06:14:36;15.70;91.40
32534;DHT22;18973;48.580;8.912;2023-06-14T06:17:02;15.70;91.70
32534;DHT22;18973;48.580;8.912;2023-06-14T06:19:27;15.90;91.80
32534;DHT22;18973;48.580;8.912;2023-06-14T06:21:53;16.00;90.90
32534;DHT22;18973;48.580;8.912;2023-06-14T06:24:19;16.10;90.50
32534;DHT22;18973;48.580;8.912;2023-06-14T06:26:44;16.20;90.00
32534;DHT22;18973;48.580;8.912;2023-06-14T06:29:10;16.30;88.80
32534;DHT22;18973;48.580;8.912;2023-06-14T06:31:36;16.40;88.60
32534;DHT22;18973;48.580;8.912;2023-06-14T06:34:02;16.50;87.80
32534;DHT22;18973;48.580;8.912;2023-06-14T06:36:28;16.50;87.40
32534;DHT22;18973;48.580;8.912;2023-06-14T06:38:54;16.60;88.50
32534;DHT22;18973;48.580;8.912;2023-06-14T06:41:19;16.80;88.80
32534;DHT22;18973;48.580;8.912;2023-06-14T06:43:45;16.90;88.70
32534;DHT22;18973;48.580;8.912;2023-06-14T06:46:11;17.10;86.60
32534;DHT22;18973;48.580;8.912;2023-06-14T06:48:38;17.20;86.60
32534;DHT22;18973;48.580;8.912;2023-06-14T06:51:03;17.30;84.00
32534;DHT22;18973;48.580;8.912;2023-06-14T06:53:30;17.40;85.50
32534;DHT22;18973;48.580;8.912;2023-06-14T06:55:56;17.60;83.90
32534;DHT22;18973;48.580;8.912;2023-06-14T06:58:22;17.70;84.20
32534;DHT22;18973;48.580;8.912;2023-06-14T07:00:48;17.90;82.20
32534;DHT22;18973;48.580;8.912;2023-06-14T07:03:13;17.90;82.70
32534;DHT22;18973;48.580;8.912;2023-06-14T07:05:39;18.20;83.60
32534;DHT22;18973;48.580;8.912;2023-06-14T07:08:07;18.40;82.40
32534;DHT22;18973;48.580;8.912;2023-06-14T07:10:33;18.60;79.70
32534;DHT22;18973;48.580;8.912;2023-06-14T07:12:59;18.80;78.80
32534;DHT22;18973;48.580;8.912;2023-06-14T07:15:25;18.90;78.90
32534;DHT22;18973;48.580;8.912;2023-06-14T07:17:51;18.80;78.70
32534;DHT22;18973;48.580;8.912;2023-06-14T07:20:16;19.00;78.60
32534;DHT22;18973;48.580;8.912;2023-06-14T07:22:43;19.20;78.20
32534;DHT22;18973;48.580;8.912;2023-06-14T07:25:12;19.40;77.70
32534;DHT22;18973;48.580;8.912;2023-06-14T07:27:42;19.60;77.60
32534;DHT22;18973;48.580;8.912;2023-06-14T07:30:09;19.80;79.80
32534;DHT22;18973;48.580;8.912;2023-06-14T07:32:35;20.20;77.60
32534;DHT22;18973;48.580;8.912;2023-06-14T07:35:01;20.40;76.40
32534;DHT22;18973;48.580;8.912;2023-06-14T07:37:27;20.60;75.10
32534;DHT22;18973;48.580;8.912;2023-06-14T07:39:53;20.80;72.80
32534;DHT22;18973;48.580;8.912;2023-06-14T07:42:19;21.00;74.90
32534;DHT22;18973;48.580;8.912;2023-06-14T07:44:45;21.20;74.50
32534;DHT22;18973;48.580;8.912;2023-06-14T07:47:11;21.50;72.80
32534;DHT22;18973;48.580;8.912;2023-06-14T07:49:36;21.80;72.90
32534;DHT22;18973;48.580;8.912;2023-06-14T07:52:03;21.60;71.50
32534;DHT22;18973;48.580;8.912;2023-06-14T07:54:29;21.70;73.70
32534;DHT22;18973;48.580;8.912;2023-06-14T07:56:55;22.10;69.30
32534;DHT22;18973;48.580;8.912;2023-06-14T07:59:21;22.30;66.40
32534;DHT22;18973;48.580;8.912;2023-06-14T08:01:47;22.60;66.70
32534;DHT22;18973;48.580;8.912;2023-06-14T08:04:14;22.90;67.50
32534;DHT22;18973;48.580;8.912;2023-06-14T08:06:40;23.30;67.80
32534;DHT22;18973;48.580;8.912;2023-06-14T08:09:09;23.40;63.70
32534;DHT22;18973;48.580;8.912;2023-06-14T08:11:35;23.60;60.90
32534;DHT22;18973;48.580;8.912;2023-06-14T08:14:01;23.70;61.70
32534;DHT22;18973;48.580;8.912;2023-06-14T08:16:27;23.30;60.90
32534;DHT22;18973;48.580;8.912;2023-06-14T08:18:52;23.50;62.10
32534;DHT22;18973;48.580;8.912;2023-06-14T08:21:18;23.80;62.00
32534;DHT22;18973;48.580;8.912;2023-06-14T08:23:44;23.80;58.30
32534;DHT22;18973;48.580;8.912;2023-06-14T08:26:10;23.80;56.60
32534;DHT22;18973;48.580;8.912;2023-06-14T08:28:36;24.00;54.80
32534;DHT22;18973;48.580;8.912;2023-06-14T08:31:02;24.00;55.40
32534;DHT22;18973;48.580;8.912;2023-06-14T08:33:28;23.90;54.60
32534;DHT22;18973;48.580;8.912;2023-06-14T08:35:53;23.70;56.50
32534;DHT22;18973;48.580;8.912;2023-06-14T08:38:19;23.50;56.80
32534;DHT22;18973;48.580;8.912;2023-06-14T08:40:48;23.70;57.00
32534;DHT22;18973;48.580;8.912;2023-06-14T08:43:15;23.50;56.50
32534;DHT22;18973;48.580;8.912;2023-06-14T08:45:41;23.80;56.70
32534;DHT22;18973;48.580;8.912;2023-06-14T08:48:07;24.10;57.00
32534;DHT22;18973;48.580;8.912;2023-06-14T08:50:34;24.60;56.10
32534;DHT22;18973;48.580;8.912;2023-06-14T08:53:02;24.60;54.10
32534;DHT22;18973;48.580;8.912;2023-06-14T08:55:29;24.40;54.10
32534;DHT22;18973;48.580;8.912;2023-06-14T08:57:57;24.50;54.80
32534;DHT22;18973;48.580;8.912;2023-06-14T09:00:24;24.80;53.90
32534;DHT22;18973;48.580;8.912;2023-06-14T09:02:51;25.00;55.10
32534;DHT22;18973;48.580;8.912;2023-06-14T09:05:22;25.00;54.70
32534;DHT22;18973;48.580;8.912;2023-06-14T09:07:48;25.20;54.00
32534;DHT22;18973;48.580;8.912;2023-06-14T09:10:15;24.60;55.20
32534;DHT22;18973;48.580;8.912;2023-06-14T09:12:41;24.40;54.30
32534;DHT22;18973;48.580;8.912;2023-06-14T09:15:08;24.60;54.80
32534;DHT22;18973;48.580;8.912;2023-06-14T09:17:38;24.60;54.30
32534;DHT22;18973;48.580;8.912;2023-06-14T09:20:05;24.80;53.70
32534;DHT22;18973;48.580;8.912;2023-06-14T09:22:32;25.10;54.30
32534;DHT22;18973;48.580;8.912;2023-06-14T09:24:58;24.40;52.00
32534;DHT22;18973;48.580;8.912;2023-06-14T09:27:26;24.50;54.70
32534;DHT22;18973;48.580;8.912;2023-06-14T09:29:53;24.90;54.60
32534;DHT22;18973;48.580;8.912;2023-06-14T09:32:19;25.00;53.60
32534;DHT22;18973;48.580;8.912;2023-06-14T09:34:45;25.00;53.30
32534;DHT22;18973;48.580;8.912;2023-06-14T09:37:11;25.20;52.20
32534;DHT22;18973;48.580;8.912;2023-06-14T09:39:50;25.30;52.10
32534;DHT22;18973;48.580;8.912;2023-06-14T09:42:17;25.40;51.90
32534;DHT22;18973;48.580;8.912;2023-06-14T09:44:47;25.50;51.70
32534;DHT22;18973;48.580;8.912;2023-06-14T09:47:15;25.70;52.70
32534;DHT22;18973;48.580;8.912;2023-06-14T09:49:41;26.00;50.80
32534;DHT22;18973;48.580;8.912;2023-06-14T09:52:07;25.70;52.00
32534;DHT22;18973;48.580;8.912;2023-06-14T09:54:45;25.70;51.70
32534;DHT22;18973;48.580;8.912;2023-06-14T09:57:22;25.60;52.00
32534;DHT22;18973;48.580;8.912;2023-06-14T09:59:48;25.60;54.00
32534;DHT22;18973;48.580;8.912;2023-06-14T10:02:28;25.90;52.90
32534;DHT22;18973;48.580;8.912;2023-06-14T10:05:05;25.80;50.50
32534;DHT22;18973;48.580;8.912;2023-06-14T10:08:04;25.70;50.80
32534;DHT22;18973;48.580;8.912;2023-06-14T10:10:31;25.20;49.40
32534;DHT22;18973;48.580;8.912;2023-06-14T10:12:56;25.40;50.60
32534;DHT22;18973;48.580;8.912;2023-06-14T10:15:54;25.90;51.40
32534;DHT22;18973;48.580;8.912;2023-06-14T10:18:32;26.40;49.40
32534;DHT22;18973;48.580;8.912;2023-06-14T10:21:18;26.30;49.60
32534;DHT22;18973;48.580;8.912;2023-06-14T10:23:47;26.10;51.40
32534;DHT22;18973;48.580;8.912;2023-06-14T10:26:21;26.40;51.20
32534;DHT22;18973;48.580;8.912;2023-06-14T10:29:16;26.30;50.30
32534;DHT22;18973;48.580;8.912;2023-06-14T10:31:46;26.20;49.60
32534;DHT22;18973;48.580;8.912;2023-06-14T10:34:20;26.20;51.40
32534;DHT22;18973;48.580;8.912;2023-06-14T10:37:00;26.20;48.90
32534;DHT22;18973;48.580;8.912;2023-06-14T10:39:28;26.60;49.90
32534;DHT22;18973;48.580;8.912;2023-06-14T10:41:55;26.60;49.50
32534;DHT22;18973;48.580;8.912;2023-06-14T10:46:49;26.80;49.70
32534;DHT22;18973;48.580;8.912;2023-06-14T10:49:19;26.80;49.40
32534;DHT22;18973;48.580;8.912;2023-06-14T10:51:55;26.80;50.30
32534;DHT22;18973;48.580;8.912;2023-06-14T10:54:23;27.20;49.70
32534;DHT22;18973;48.580;8.912;2023-06-14T10:56:52;27.30;49.60
32534;DHT22;18973;48.580;8.912;2023-06-14T10:59:20;27.30;48.20
32534;DHT22;18973;48.580;8.912;2023-06-14T11:02:27;27.20;47.60
32534;DHT22;18973;48.580;8.912;2023-06-14T11:05:03;26.90;47.60
32534;DHT22;18973;48.580;8.912;2023-06-14T11:12:48;27.00;49.80
32534;DHT22;18973;48.580;8.912;2023-06-14T11:15:14;27.10;49.40
32534;DHT22;18973;48.580;8.912;2023-06-14T11:17:52;27.30;50.00
32534;DHT22;18973;48.580;8.912;2023-06-14T11:20:19;27.50;50.20
32534;DHT22;18973;48.580;8.912;2023-06-14T11:22:45;27.70;50.80
32534;DHT22;18973;48.580;8.912;2023-06-14T11:25:11;27.50;47.20
32534;DHT22;18973;48.580;8.912;2023-06-14T11:27:37;26.60;48.00
32534;DHT22;18973;48.580;8.912;2023-06-14T11:30:06;26.50;49.60
32534;DHT22;18973;48.580;8.912;2023-06-14T11:32:33;26.10;47.30
32534;DHT22;18973;48.580;8.912;2023-06-14T11:34:59;25.60;49.70
32534;DHT22;18973;48.580;8.912;2023-06-14T11:37:28;25.60;50.10
32534;DHT22;18973;48.580;8.912;2023-06-14T11:40:02;25.90;49.30
32534;DHT22;18973;48.580;8.912;2023-06-14T11:42:30;26.10;48.60
32534;DHT22;18973;48.580;8.912;2023-06-14T11:44:56;26.10;48.50
32534;DHT22;18973;48.580;8.912;2023-06-14T11:47:22;26.70;49.00
32534;DHT22;18973;48.580;8.912;2023-06-14T11:49:48;27.20;49.80
32534;DHT22;18973;48.580;8.912;2023-06-14T11:52:14;27.40;47.30
32534;DHT22;18973;48.580;8.912;2023-06-14T11:54:40;27.00;46.70
32534;DHT22;18973;48.580;8.912;2023-06-14T11:57:09;26.80;47.90
32534;DHT22;18973;48.580;8.912;2023-06-14T11:59:39;27.10;47.60
32534;DHT22;18973;48.580;8.912;2023-06-14T12:02:06;26.70;46.70
32534;DHT22;18973;48.580;8.912;2023-06-14T12:04:32;26.60;47.70
32534;DHT22;18973;48.580;8.912;2023-06-14T12:07:12;26.60;46.90
32534;DHT22;18973;48.580;8.912;2023-06-14T12:10:03;26.60;46.40
32534;DHT22;18973;48.580;8.912;2023-06-14T12:12:38;26.80;47.90
32534;DHT22;18973;48.580;8.912;2023-06-14T12:15:08;27.00;47.10
32534;DHT22;18973;48.580;8.912;2023-06-14T12:17:35;26.80;47.00
32534;DHT22;18973;48.580;8.912;2023-06-14T12:20:12;26.20;46.70
32534;DHT22;18973;48.580;8.912;2023-06-14T12:22:59;25.90;47.30
32534;DHT22;18973;48.580;8.912;2023-06-14T12:25:31;26.50;48.60
32534;DHT22;18973;48.580;8.912;2023-06-14T12:28:04;26.80;47.00
32534;DHT22;18973;48.580;8.912;2023-06-14T12:30:31;26.80;46.30
32534;DHT22;18973;48.580;8.912;2023-06-14T12:32:57;26.40;49.10
32534;DHT22;18973;48.580;8.912;2023-06-14T12:35:23;26.90;48.90
32534;DHT22;18973;48.580;8.912;2023-06-14T12:37:48;26.90;48.40
32534;DHT22;18973;48.580;8.912;2023-06-14T12:40:14;26.60;48.10
32534;DHT22;18973;48.580;8.912;2023-06-14T12:42:40;26.60;48.70
32534;DHT22;18973;48.580;8.912;2023-06-14T12:45:07;26.80;48.10
32534;DHT22;18973;48.580;8.912;2023-06-14T12:47:32;27.30;49.50
32534;DHT22;18973;48.580;8.912;2023-06-14T12:49:58;27.30;47.30
32534;DHT22;18973;48.580;8.912;2023-06-14T12:52:24;27.20;47.70
32534;DHT22;18973;48.580;8.912;2023-06-14T12:54:50;26.50;47.90
32534;DHT22;18973;48.580;8.912;2023-06-14T12:57:15;26.50;49.10
32534;DHT22;18973;48.580;8.912;2023-06-14T12:59:43;26.50;49.80
32534;DHT22;18973;48.580;8.912;2023-06-14T13:02:13;26.90;48.80
32534;DHT22;18973;48.580;8.912;2023-06-14T13:04:39;27.00;49.70
32534;DHT22;18973;48.580;8.912;2023-06-14T13:07:05;26.80;48.80
32534;DHT22;18973;48.580;8.912;2023-06-14T13:09:31;26.90;49.00
32534;DHT22;18973;48.580;8.912;2023-06-14T13:11:56;27.30;49.40
32534;DHT22;18973;48.580;8.912;2023-06-14T13:14:22;27.50;48.40
32534;DHT22;18973;48.580;8.912;2023-06-14T13:16:48;27.40;47.80
32534;DHT22;18973;48.580;8.912;2023-06-14T13:19:13;27.40;48.80
32534;DHT22;18973;48.580;8.912;2023-06-14T13:21:39;27.30;46.60
32534;DHT22;18973;48.580;8.912;2023-06-14T13:24:05;27.10;48.10
32534;DHT22;18973;48.580;8.912;2023-06-14T13:26:33;27.30;48.00
32534;DHT22;18973;48.580;8.912;2023-06-14T13:28:59;27.50;49.40
32534;DHT22;18973;48.580;8.912;2023-06-14T13:31:25;27.60;47.70
32534;DHT22;18973;48.580;8.912;2023-06-14T13:33:50;27.60;47.70
32534;DHT22;18973;48.580;8.912;2023-06-14T13:36:16;27.40;47.60
32534;DHT22;18973;48.580;8.912;2023-06-14T13:38:42;26.80;47.40
32534;DHT22;18973;48.580;8.912;2023-06-14T13:41:08;26.30;47.60
32534;DHT22;18973;48.580;8.912;2023-06-14T13:43:33;26.10;48.60
32534;DHT22;18973;48.580;8.912;2023-06-14T13:45:59;26.40;50.10
32534;DHT22;18973;48.580;8.912;2023-06-14T13:48:26;26.70;48.60
32534;DHT22;18973;48.580;8.912;2023-06-14T13:50:51;26.90;49.00
32534;DHT22;18973;48.580;8.912;2023-06-14T13:53:17;26.70;48.30
32534;DHT22;18973;48.580;8.912;2023-06-14T13:55:43;26.30;48.20
32534;DHT22;18973;48.580;8.912;2023-06-14T13:58:09;26.20;48.20
32534;DHT22;18973;48.580;8.912;2023-06-14T14:00:35;26.20;47.70
32534;DHT22;18973;48.580;8.912;2023-06-14T14:03:06;26.10;47.40
32534;DHT22;18973;48.580;8.912;2023-06-14T14:05:31;26.20;48.00
32534;DHT22;18973;48.580;8.912;2023-06-14T14:07:58;26.30;49.90
32534;DHT22;18973;48.580;8.912;2023-06-14T14:10:25;26.40;47.90
32534;DHT22;18973;48.580;8.912;2023-06-14T14:12:51;26.30;48.10
32534;DHT22;18973;48.580;8.912;2023-06-14T14:15:17;26.00;48.40
32534;DHT22;18973;48.580;8.912;2023-06-14T14:17:43;26.20;49.10
32534;DHT22;18973;48.580;8.912;2023-06-14T14:20:09;26.40;48.20
32534;DHT22;18973;48.580;8.912;2023-06-14T14:22:35;26.00;47.60
32534;DHT22;18973;48.580;8.912;2023-06-14T14:25:01;25.70;47.90
32534;DHT22;18973;48.580;8.912;2023-06-14T14:27:26;26.00;48.00
32534;DHT22;18973;48.580;8.912;2023-06-14T14:29:52;26.20;49.70
32534;DHT22;18973;48.580;8.912;2023-06-14T14:32:18;26.20;48.10
32534;DHT22;18973;48.580;8.912;2023-06-14T14:34:43;26.30;47.50
32534;DHT22;18973;48.580;8.912;2023-06-14T14:37:09;26.50;48.40
32534;DHT22;18973;48.580;8.912;2023-06-14T14:39:37;26.70;48.30
32534;DHT22;18973;48.580;8.912;2023-06-14T14:42:02;26.60;47.30
32534;DHT22;18973;48.580;8.912;2023-06-14T14:44:28;26.20;47.30
32534;DHT22;18973;48.580;8.912;2023-06-14T14:46:54;26.40;48.30
32534;DHT22;18973;48.580;8.912;2023-06-14T14:49:20;26.50;48.40
32534;DHT22;18973;48.580;8.912;2023-06-14T14:51:45;26.60;49.00
32534;DHT22;18973;48.580;8.912;2023-06-14T14:54:11;26.30;46.80
32534;DHT22;18973;48.580;8.912;2023-06-14T14:56:37;26.20;48.00
32534;DHT22;18973;48.580;8.912;2023-06-14T14:59:03;26.30;47.60
32534;DHT22;18973;48.580;8.912;2023-06-14T15:01:29;26.30;47.20
32534;DHT22;18973;48.580;8.912;2023-06-14T15:03:55;26.30;48.70
32534;DHT22;18973;48.580;8.912;2023-06-14T15:06:21;26.30;47.50
32534;DHT22;18973;48.580;8.912;2023-06-14T15:08:46;26.40;48.80
32534;DHT22;18973;48.580;8.912;2023-06-14T15:11:12;26.30;48.10
32534;DHT22;18973;48.580;8.912;2023-06-14T15:13:38;26.20;47.80
32534;DHT22;18973;48.580;8.912;2023-06-14T15:16:04;26.30;47.80
32534;DHT22;18973;48.580;8.912;2023-06-14T15:18:30;26.30;48.20
32534;DHT22;18973;48.580;8.912;2023-06-14T15:20:55;26.20;48.00
32534;DHT22;18973;48.580;8.912;2023-06-14T15:23:21;26.30;47.50
32534;DHT22;18973;48.580;8.912;2023-06-14T15:25:48;26.30;48.40
32534;DHT22;18973;48.580;8.912;2023-06-14T15:28:13;26.40;48.60
32534;DHT22;18973;48.580;8.912;2023-06-14T15:30:39;26.40;48.20
32534;DHT22;18973;48.580;8.912;2023-06-14T15:33:05;26.20;47.10
32534;DHT22;18973;48.580;8.912;2023-06-14T15:35:31;26.00;47.60
32534;DHT22;18973;48.580;8.912;2023-06-14T15:37:56;26.20;47.90
32534;DHT22;18973;48.580;8.912;2023-06-14T15:40:22;26.20;48.60
32534;DHT22;18973;48.580;8.912;2023-06-14T15:42:48;26.20;48.30
32534;DHT22;18973;48.580;8.912;2023-06-14T15:45:14;26.40;47.80
32534;DHT22;18973;48.580;8.912;2023-06-14T15:47:39;26.20;47.80